Time;durP1;ratioP1;P1;durP2;ratioP2;P2;SDS_P1;SDS_P2;PMS_P1;PMS_P2;Temp;Humidity;BMP_temperature;BMP_pressure;BME280_temperature;BME280_humidity;BME280_pressure;Samples;Min_cycle;Max_cycle;Signal;HPM_P1;HPM_P2
2022/09/19 00:01:40;;;;;;;6.20;2.22;;;14.20;67.90;;;;;;5019759;28;20036;-78
2022/09/19 00:04:21;;;;;;;3.38;2.17;;;14.20;68.10;;;;;;5035012;28;20025;-78
2022/09/19 00:06:48;;;;;;;4.45;2.13;;;14.20;68.10;;;;;;4998152;28;20038;-78
2022/09/19 00:09:18;;;;;;;2.42;1.75;;;14.20;68.20;;;;;;4994934;28;20073;-78
2022/09/19 00:11:46;;;;;;;4.13;1.80;;;14.10;68.10;;;;;;5012631;28;20072;-78
2022/09/19 00:14:14;;;;;;;5.70;2.20;;;14.20;67.90;;;;;;4995486;28;20285;-78
2022/09/19 00:16:44;;;;;;;3.55;1.48;;;14.10;68.00;;;;;;4995801;28;20037;-78
2022/09/19 00:19:21;;;;;;;5.40;1.85;;;14.10;68.10;;;;;;4995542;28;20034;-78
2022/09/19 00:21:48;;;;;;;6.43;2.35;;;14.10;68.10;;;;;;5014887;28;20030;-78
2022/09/19 00:27:03;;;;;;;3.47;1.85;;;14.00;68.10;;;;;;4994875;28;20081;-78
2022/09/19 00:29:29;;;;;;;4.57;1.90;;;14.00;68.00;;;;;;4995586;28;20033;-78
2022/09/19 00:31:54;;;;;;;2.90;1.83;;;14.00;67.90;;;;;;4995279;28;20026;-78
2022/09/19 00:34:20;;;;;;;3.90;1.90;;;14.00;68.10;;;;;;4995696;28;20045;-77
2022/09/19 00:36:49;;;;;;;5.43;2.20;;;14.00;68.20;;;;;;4995140;28;20033;-78
2022/09/19 00:39:17;;;;;;;2.55;1.65;;;14.00;68.10;;;;;;4997871;28;20030;-78
2022/09/19 00:41:44;;;;;;;3.75;1.73;;;13.90;68.20;;;;;;4996996;28;20030;-78
2022/09/19 00:44:22;;;;;;;5.07;1.98;;;13.90;68.30;;;;;;5013616;28;20085;-78
2022/09/19 00:47:17;;;;;;;4.30;2.40;;;13.80;68.30;;;;;;4998903;28;20405;-78
2022/09/19 00:49:46;;;;;;;3.67;1.92;;;13.80;68.30;;;;;;5010584;28;20029;-78
2022/09/19 00:52:51;;;;;;;3.97;1.73;;;13.90;68.10;;;;;;5015156;28;20068;-78
2022/09/19 00:55:17;;;;;;;3.35;1.70;;;13.80;68.10;;;;;;4998773;28;20024;-78
2022/09/19 00:58:10;;;;;;;4.85;2.30;;;13.80;68.10;;;;;;4998655;28;20018;-78
2022/09/19 01:00:36;;;;;;;5.72;2.00;;;13.80;68.20;;;;;;4999277;28;20513;-78
2022/09/19 01:03:07;;;;;;;3.20;1.90;;;13.80;68.00;;;;;;4998111;28;20022;-78
2022/09/19 01:05:55;;;;;;;2.72;1.92;;;13.80;68.00;;;;;;4998472;28;20043;-77
2022/09/19 01:08:35;;;;;;;3.83;1.83;;;13.80;68.10;;;;;;4998455;28;20045;-78
2022/09/19 01:11:16;;;;;;;2.28;1.50;;;13.80;68.20;;;;;;5002949;28;20034;-78
2022/09/19 01:13:53;;;;;;;4.68;1.80;;;13.70;68.20;;;;;;4998329;28;20493;-78
2022/09/19 01:16:41;;;;;;;1.92;1.63;;;13.70;68.40;;;;;;4996639;28;20073;-78
2022/09/19 01:19:26;;;;;;;3.47;1.85;;;13.70;67.90;;;;;;4998413;28;20050;-78
2022/09/19 01:22:11;;;;;;;2.10;1.70;;;13.70;68.10;;;;;;4997274;28;20038;-77
2022/09/19 01:24:58;;;;;;;2.33;1.55;;;13.70;68.10;;;;;;5008506;28;20489;-78
2022/09/19 01:27:54;;;;;;;3.58;1.77;;;13.60;68.20;;;;;;5037426;28;20025;-78
2022/09/19 01:30:20;;;;;;;1.98;1.70;;;13.60;68.50;;;;;;5013674;28;20038;-78
2022/09/19 01:33:31;;;;;;;;;;;;;;;;;;;;;
2022/09/19 01:35:57;;;;;;;2.58;1.95;;;13.70;68.40;;;;;;4995905;28;20049;-78
2022/09/19 01:38:26;;;;;;;2.70;1.70;;;13.60;68.10;;;;;;4997924;28;20053;-78
2022/09/19 01:40:53;;;;;;;2.38;2.05;;;13.60;68.40;;;;;;4997039;28;20505;-77
2022/09/19 01:43:20;;;;;;;2.65;1.42;;;13.60;68.40;;;;;;4997722;28;20027;-78
2022/09/19 01:45:47;;;;;;;2.78;1.85;;;13.60;68.00;;;;;;4997665;28;20027;-78
2022/09/19 01:48:26;;;;;;;2.47;2.10;;;13.60;68.30;;;;;;4996423;28;20554;-78
2022/09/19 01:51:18;;;;;;;2.97;1.98;;;13.50;68.30;;;;;;4997565;28;20042;-78
2022/09/19 01:54:13;;;;;;;3.58;1.85;;;13.50;68.40;;;;;;4997553;28;20034;-78
2022/09/19 01:56:47;;;;;;;4.55;2.20;;;13.50;68.30;;;;;;4997957;28;20525;-78
2022/09/19 01:59:13;;;;;;;4.30;2.33;;;13.50;68.50;;;;;;4996846;28;20026;-78
2022/09/19 02:01:51;;;;;;;4.93;2.50;;;13.50;68.40;;;;;;4997118;28;20027;-77
2022/09/19 02:04:34;;;;;;;2.97;2.15;;;13.50;68.50;;;;;;4997157;28;20118;-78
2022/09/19 02:07:44;;;;;;;3.28;2.00;;;13.40;68.50;;;;;;4997716;28;20034;-77
2022/09/19 02:10:29;;;;;;;4.63;2.67;;;13.40;68.50;;;;;;5000748;28;20414;-78
2022/09/19 02:12:57;;;;;;;4.00;1.75;;;13.40;68.30;;;;;;5016730;28;20026;-78
2022/09/19 02:15:28;;;;;;;4.45;2.30;;;13.40;68.30;;;;;;5016812;28;20054;-78
2022/09/19 02:18:07;;;;;;;5.88;1.80;;;13.30;68.40;;;;;;4999734;28;20441;-78
2022/09/19 02:20:35;;;;;;;4.93;2.30;;;13.30;68.50;;;;;;4996946;28;20062;-78
2022/09/19 02:23:16;;;;;;;3.88;2.30;;;13.30;68.50;;;;;;4997013;28;20062;-78
2022/09/19 02:25:44;;;;;;;3.60;2.25;;;13.30;68.60;;;;;;4997389;28;20496;-78
2022/09/19 02:28:16;;;;;;;2.80;1.90;;;13.20;68.50;;;;;;4996985;28;20038;-78
2022/09/19 02:30:45;;;;;;;2.45;1.75;;;13.20;68.70;;;;;;4996879;28;20510;-78
2022/09/19 02:33:11;;;;;;;7.00;2.38;;;13.20;68.90;;;;;;4996817;28;20042;-78
2022/09/19 02:36:00;;;;;;;;;;;;;;;;;;;;;
2022/09/19 02:38:57;;;;;;;5.30;2.25;;;13.30;68.70;;;;;;4996719;28;20145;-78
2022/09/19 02:41:49;;;;;;;2.53;1.85;;;13.20;68.90;;;;;;5012444;28;20113;-78
2022/09/19 02:45:04;;;;;;;4.25;2.08;;;13.20;68.90;;;;;;4996266;28;20085;-78
2022/09/19 02:47:39;;;;;;;3.50;2.13;;;13.20;68.60;;;;;;4970460;28;20070;-78
2022/09/19 02:50:08;;;;;;;2.45;2.05;;;13.20;68.30;;;;;;5026501;28;20092;-78
2022/09/19 02:52:34;;;;;;;2.78;2.08;;;13.10;68.70;;;;;;4998192;28;20030;-77
2022/09/19 02:55:09;;;;;;;2.35;2.13;;;13.10;68.60;;;;;;5012078;28;20037;-78
2022/09/19 02:57:36;;;;;;;3.00;2.20;;;13.10;68.70;;;;;;4996041;28;20030;-78
2022/09/19 03:00:05;;;;;;;2.67;1.88;;;13.00;68.90;;;;;;4996469;28;20026;-78
2022/09/19 03:02:37;;;;;;;5.82;2.08;;;13.00;69.00;;;;;;4996034;28;20429;-78
2022/09/19 03:05:13;;;;;;;2.17;1.85;;;13.00;69.00;;;;;;4996360;28;20033;-78
2022/09/19 03:08:01;;;;;;;3.20;1.92;;;13.00;68.80;;;;;;4996205;28;20113;-78
2022/09/19 03:10:36;;;;;;;3.78;2.00;;;13.00;68.70;;;;;;5001867;28;20032;-78
2022/09/19 03:13:04;;;;;;;3.25;2.13;;;13.00;68.80;;;;;;5008790;28;20425;-78
2022/09/19 03:15:51;;;;;;;;;;;;;;;;;;;;;
2022/09/19 03:18:21;;;;;;;4.10;2.25;;;12.90;69.00;;;;;;4996065;28;20113;-78
2022/09/19 03:20:51;;;;;;;4.82;2.25;;;12.90;69.00;;;;;;4979058;28;20034;-77
2022/09/19 03:23:23;;;;;;;4.63;2.10;;;12.90;69.40;;;;;;4996149;28;20026;-78
2022/09/19 03:25:49;;;;;;;4.75;2.40;;;12.90;69.30;;;;;;4996124;28;20088;-78
2022/09/19 03:28:19;;;;;;;2.53;2.05;;;12.90;69.10;;;;;;4995912;28;20030;-78
2022/09/19 03:30:45;;;;;;;3.25;2.08;;;12.90;69.30;;;;;;4995048;28;20513;-78
2022/09/19 03:33:19;;;;;;;3.40;2.55;;;12.80;69.40;;;;;;4995880;28;20034;-77
2022/09/19 03:35:50;;;;;;;4.53;2.45;;;12.80;69.60;;;;;;4996448;28;20035;-78
2022/09/19 03:38:16;;;;;;;4.80;2.47;;;12.80;69.60;;;;;;4996098;28;20464;-78
2022/09/19 03:40:41;;;;;;;3.88;2.20;;;12.80;69.50;;;;;;4995835;28;20112;-78
2022/09/19 03:43:07;;;;;;;3.63;2.45;;;12.80;69.70;;;;;;4995758;28;20509;-78
2022/09/19 03:45:33;;;;;;;7.40;2.20;;;12.80;69.70;;;;;;4996306;28;20118;-78
2022/09/19 03:47:58;;;;;;;2.72;2.28;;;12.80;69.50;;;;;;4995009;28;20094;-77
2022/09/19 03:50:24;;;;;;;7.28;2.17;;;12.80;69.30;;;;;;5012766;28;20569;-77
2022/09/19 03:52:50;;;;;;;2.35;1.98;;;12.80;69.40;;;;;;5004035;28;20062;-78
2022/09/19 03:55:17;;;;;;;4.88;2.65;;;12.80;69.40;;;;;;4995824;28;20025;-78
2022/09/19 03:57:43;;;;;;;4.80;2.40;;;12.80;69.50;;;;;;5010853;28;20031;-78
2022/09/19 04:00:09;;;;;;;5.47;2.38;;;12.70;69.60;;;;;;4995790;28;20034;-78
2022/09/19 04:02:35;;;;;;;3.75;2.30;;;12.70;69.70;;;;;;4996239;28;20030;-78
2022/09/19 04:05:02;;;;;;;3.47;2.20;;;12.70;69.70;;;;;;4993680;28;20545;-77
2022/09/19 04:07:28;;;;;;;3.92;2.17;;;12.70;69.80;;;;;;4995603;28;20105;-76
2022/09/19 04:09:57;;;;;;;3.05;2.35;;;12.80;69.80;;;;;;4997878;28;20533;-78
2022/09/19 04:12:23;;;;;;;4.38;2.47;;;12.70;69.60;;;;;;5017124;28;20030;-78
2022/09/19 04:14:49;;;;;;;4.45;2.50;;;12.70;69.80;;;;;;5001960;28;20018;-78
2022/09/19 04:17:15;;;;;;;3.65;2.20;;;12.60;70.10;;;;;;4999347;28;20367;-77
2022/09/19 04:19:42;;;;;;;2.50;1.90;;;12.60;70.00;;;;;;4998298;28;20019;-78
2022/09/19 04:22:08;;;;;;;2.60;2.10;;;12.50;70.40;;;;;;4999670;28;20034;-78
2022/09/19 04:24:35;;;;;;;2.65;1.83;;;12.50;69.90;;;;;;4998844;28;20033;-77
2022/09/19 04:27:06;;;;;;;2.95;1.92;;;12.40;69.80;;;;;;5019516;28;20030;-78
2022/09/19 04:29:33;;;;;;;3.65;2.05;;;12.30;69.90;;;;;;5018374;28;20013;-77
2022/09/19 04:32:02;;;;;;;3.60;2.28;;;12.40;70.30;;;;;;4999529;28;20042;-75
2022/09/19 04:34:28;;;;;;;5.82;2.35;;;12.40;70.20;;;;;;4998993;28;20015;-77
2022/09/19 04:36:56;;;;;;;5.97;2.45;;;12.40;70.30;;;;;;4997273;28;20038;-78
2022/09/19 04:39:22;;;;;;;2.60;2.00;;;12.50;70.30;;;;;;4999071;28;20029;-78
2022/09/19 04:41:52;;;;;;;7.05;2.70;;;12.40;70.20;;;;;;4999206;28;20026;-77
2022/09/19 04:44:20;;;;;;;7.28;3.22;;;12.50;70.30;;;;;;4998807;28;20129;-78
2022/09/19 04:46:50;;;;;;;2.65;2.42;;;12.50;70.20;;;;;;5013484;28;20058;-78
2022/09/19 04:49:16;;;;;;;3.17;2.40;;;12.50;70.30;;;;;;5006710;28;20028;-77
2022/09/19 04:51:42;;;;;;;3.17;2.40;;;12.40;70.40;;;;;;5018670;28;20033;-77
2022/09/19 04:54:09;;;;;;;3.33;2.60;;;12.40;70.20;;;;;;5018164;28;20366;-78
2022/09/19 04:56:35;;;;;;;3.22;2.50;;;12.40;70.40;;;;;;5017690;28;20033;-78
2022/09/19 04:59:02;;;;;;;8.23;3.15;;;12.40;70.40;;;;;;5007103;28;20030;-81
2022/09/19 05:01:30;;;;;;;2.75;2.20;;;12.40;70.50;;;;;;5004592;28;20029;-79
2022/09/19 05:04:04;;;;;;;2.83;2.17;;;12.40;70.50;;;;;;5027911;28;20028;-79
2022/09/19 05:06:30;;;;;;;4.30;2.50;;;12.40;70.50;;;;;;5017979;28;20033;-79
2022/09/19 05:08:57;;;;;;;3.67;2.60;;;12.40;70.80;;;;;;5011857;28;20433;-77
2022/09/19 05:11:24;;;;;;;5.60;3.00;;;12.40;70.60;;;;;;5016816;28;20052;-77
2022/09/19 05:13:51;;;;;;;4.30;2.30;;;12.50;70.40;;;;;;5017019;28;20018;-77
2022/09/19 05:16:18;;;;;;;4.07;2.30;;;12.40;70.50;;;;;;5006615;28;20026;-77
2022/09/19 05:18:44;;;;;;;2.80;2.40;;;12.40;70.90;;;;;;5016617;28;20092;-76
2022/09/19 05:21:13;;;;;;;3.67;2.67;;;12.30;70.80;;;;;;5017077;28;20048;-76
2022/09/19 05:23:40;;;;;;;8.13;2.97;;;12.30;70.80;;;;;;5004063;28;20670;-76
2022/09/19 05:26:16;;;;;;;5.03;2.70;;;12.30;70.80;;;;;;5004016;28;20037;-76
2022/09/19 05:28:46;;;;;;;2.95;2.25;;;12.30;70.80;;;;;;5012047;28;20033;-76
2022/09/19 05:31:13;;;;;;;5.22;4.82;;;12.30;70.70;;;;;;4997263;28;20036;-76
2022/09/19 05:33:39;;;;;;;3.38;2.40;;;12.30;71.00;;;;;;5013764;28;20044;-76
2022/09/19 05:36:05;;;;;;;3.95;2.75;;;12.30;70.90;;;;;;5015341;28;20041;-76
2022/09/19 05:38:32;;;;;;;4.22;2.60;;;12.20;71.30;;;;;;5031129;28;20049;-76
2022/09/19 05:41:00;;;;;;;5.65;2.80;;;12.20;71.20;;;;;;4998627;28;20042;-77
2022/09/19 05:43:26;;;;;;;7.90;3.72;;;12.10;71.10;;;;;;5016703;28;20073;-76
2022/09/19 05:45:54;;;;;;;4.32;2.83;;;12.00;71.40;;;;;;5012597;28;20030;-78
2022/09/19 05:48:20;;;;;;;3.92;2.10;;;12.00;71.50;;;;;;5013249;28;20481;-78
2022/09/19 05:50:48;;;;;;;3.15;2.38;;;12.00;71.50;;;;;;5017447;28;20033;-79
2022/09/19 05:55:59;;;;;;;7.55;3.25;;;11.90;71.90;;;;;;5011337;28;20034;-78
2022/09/19 05:58:26;;;;;;;3.92;2.17;;;11.90;71.90;;;;;;4989343;28;20060;-78
2022/09/19 06:00:54;;;;;;;5.45;2.85;;;11.90;72.00;;;;;;5023256;28;20026;-78
2022/09/19 06:03:21;;;;;;;6.75;2.40;;;11.90;71.80;;;;;;5036870;28;20022;-78
2022/09/19 06:05:50;;;;;;;4.00;2.80;;;11.90;72.00;;;;;;5009773;28;20034;-78
2022/09/19 06:08:17;;;;;;;2.60;2.08;;;12.00;71.70;;;;;;4998619;28;20648;-79
2022/09/19 06:10:44;;;;;;;3.30;2.50;;;12.00;71.70;;;;;;5009909;28;20133;-78
2022/09/19 06:13:19;;;;;;;9.00;3.50;;;12.00;71.40;;;;;;4999278;28;20421;-78
2022/09/19 06:15:45;;;;;;;6.50;3.05;;;12.00;71.40;;;;;;5016850;28;20038;-78
2022/09/19 06:18:11;;;;;;;4.30;2.97;;;12.00;71.50;;;;;;5012262;28;20175;-78
2022/09/19 06:20:38;;;;;;;5.88;2.97;;;12.00;71.60;;;;;;4997502;28;20561;-78
2022/09/19 06:23:06;;;;;;;4.05;3.13;;;12.00;71.50;;;;;;4997841;28;20080;-78
2022/09/19 06:25:33;;;;;;;5.28;2.63;;;12.00;72.00;;;;;;5012510;28;20038;-78
2022/09/19 06:28:02;;;;;;;4.95;2.70;;;12.00;71.90;;;;;;4997286;28;20056;-78
2022/09/19 06:30:28;;;;;;;8.10;3.10;;;12.00;72.00;;;;;;4997590;28;20022;-78
2022/09/19 06:32:54;;;;;;;4.07;2.22;;;12.00;72.20;;;;;;5011739;28;20069;-78
2022/09/19 06:35:21;;;;;;;3.60;2.95;;;12.00;72.40;;;;;;5008214;28;20048;-78
2022/09/19 06:37:47;;;;;;;5.20;2.15;;;12.00;72.30;;;;;;5016996;28;20076;-78
2022/09/19 06:40:13;;;;;;;5.03;2.85;;;12.00;72.20;;;;;;5016974;28;20441;-78
2022/09/19 06:42:40;;;;;;;5.82;2.72;;;12.00;72.80;;;;;;5012851;28;20033;-78
2022/09/19 06:45:06;;;;;;;5.47;3.20;;;12.00;72.50;;;;;;5012936;28;20054;-77
2022/09/19 06:47:32;;;;;;;6.00;2.90;;;12.00;72.60;;;;;;5023338;28;20024;-78
2022/09/19 06:50:00;;;;;;;4.93;2.67;;;12.10;72.20;;;;;;5016206;28;20405;-78
2022/09/19 06:52:26;;;;;;;5.35;3.08;;;12.20;72.30;;;;;;5007284;28;20056;-78
2022/09/19 06:54:52;;;;;;;6.55;2.92;;;12.20;72.30;;;;;;5015765;28;20113;-78
2022/09/19 06:57:17;;;;;;;4.55;3.15;;;12.30;72.20;;;;;;5015785;28;20513;-78
2022/09/19 06:59:43;;;;;;;3.17;2.63;;;12.30;72.40;;;;;;5015897;28;20109;-79
2022/09/19 07:02:09;;;;;;;3.30;2.58;;;12.30;72.70;;;;;;5015252;28;20053;-78
2022/09/19 07:04:35;;;;;;;5.10;2.40;;;12.30;73.00;;;;;;5016090;28;20030;-78
2022/09/19 07:07:01;;;;;;;3.03;2.40;;;12.40;73.10;;;;;;4998101;28;20035;-78
2022/09/19 07:09:27;;;;;;;6.18;3.13;;;12.40;73.40;;;;;;4996659;28;20034;-78
2022/09/19 07:11:54;;;;;;;3.45;2.70;;;12.50;73.70;;;;;;5005301;28;20038;-78
2022/09/19 07:14:20;;;;;;;3.47;2.72;;;12.60;73.90;;;;;;4996529;28;20026;-79
2022/09/19 07:16:45;;;;;;;6.15;3.47;;;12.70;73.80;;;;;;4999101;28;20482;-78
2022/09/19 07:19:11;;;;;;;4.88;2.60;;;12.80;73.70;;;;;;5004556;28;20559;-78
2022/09/19 07:21:36;;;;;;;3.30;2.78;;;13.60;72.10;;;;;;4996178;28;20109;-78
2022/09/19 07:24:04;;;;;;;2.55;1.92;;;15.60;67.10;;;;;;5011153;28;20038;-79
2022/09/19 07:26:30;;;;;;;4.10;2.70;;;17.80;60.40;;;;;;4996327;28;20058;-79
2022/09/19 07:28:55;;;;;;;3.03;2.10;;;19.70;55.30;;;;;;4996479;28;20483;-77
2022/09/19 07:31:21;;;;;;;7.13;2.60;;;21.00;51.80;;;;;;4996789;28;20109;-77
2022/09/19 07:33:47;;;;;;;3.33;2.00;;;21.80;49.70;;;;;;5030570;28;20515;-77
2022/09/19 07:36:13;;;;;;;4.90;2.00;;;22.30;48.20;;;;;;5002978;28;20394;-78
2022/09/19 07:38:39;;;;;;;4.05;2.03;;;22.40;47.40;;;;;;4994990;28;20034;-79
2022/09/19 07:41:05;;;;;;;3.33;2.30;;;22.30;48.20;;;;;;4996597;28;20035;-78
2022/09/19 07:43:30;;;;;;;2.85;1.90;;;20.80;50.20;;;;;;5007858;28;20066;-78
2022/09/19 07:45:56;;;;;;;5.30;2.22;;;19.30;53.70;;;;;;4996037;28;20033;-78
2022/09/19 07:48:22;;;;;;;4.80;2.33;;;18.20;57.00;;;;;;5000065;28;20084;-78
2022/09/19 07:50:48;;;;;;;3.67;1.83;;;17.30;59.70;;;;;;5000517;28;20033;-78
2022/09/19 07:53:15;;;;;;;4.43;1.80;;;16.70;61.60;;;;;;5015099;28;20030;-78
2022/09/19 07:55:42;;;;;;;2.55;1.60;;;16.30;63.50;;;;;;5020928;28;20021;-78
2022/09/19 07:58:10;;;;;;;4.40;1.70;;;15.90;64.90;;;;;;5014830;28;20065;-78
2022/09/19 08:00:37;;;;;;;3.15;1.65;;;15.80;66.60;;;;;;5001569;28;20019;-78
2022/09/19 08:03:05;;;;;;;4.25;1.90;;;15.70;66.90;;;;;;5019155;28;20567;-78
2022/09/19 08:05:37;;;;;;;2.83;1.55;;;15.70;67.00;;;;;;5014076;28;20496;-78
2022/09/19 08:08:04;;;;;;;5.55;1.88;;;15.90;67.10;;;;;;5000074;28;20037;-78
2022/09/19 08:10:30;;;;;;;4.20;1.88;;;16.30;66.40;;;;;;5007009;28;20019;-79
2022/09/19 08:13:03;;;;;;;2.08;1.40;;;16.10;66.90;;;;;;5018959;28;20030;-78
2022/09/19 08:15:30;;;;;;;4.47;2.03;;;15.90;67.50;;;;;;5025353;28;20030;-78
2022/09/19 08:17:57;;;;;;;2.55;1.55;;;15.80;68.80;;;;;;5019122;28;20045;-79
2022/09/19 08:20:31;;;;;;;3.15;1.52;;;15.80;69.20;;;;;;5018899;28;20081;-78
2022/09/19 08:23:02;;;;;;;2.70;1.40;;;15.70;69.00;;;;;;5015648;28;20030;-78
2022/09/19 08:25:31;;;;;;;6.72;2.25;;;15.80;69.90;;;;;;5019071;28;20101;-78
2022/09/19 08:27:57;;;;;;;1.48;1.20;;;15.80;71.20;;;;;;5014834;28;20030;-78
2022/09/19 08:30:23;;;;;;;2.22;1.20;;;15.80;70.30;;;;;;4999308;28;20028;-79
2022/09/19 08:32:50;;;;;;;1.70;1.30;;;15.80;70.60;;;;;;4999549;28;20084;-79
2022/09/19 08:35:19;;;;;;;2.05;1.23;;;15.80;70.40;;;;;;5010426;28;20014;-79
2022/09/19 08:37:46;;;;;;;1.85;1.00;;;15.90;69.70;;;;;;5019192;28;20030;-79
2022/09/19 08:40:25;;;;;;;1.60;1.10;;;16.00;69.40;;;;;;5000962;28;20022;-79
2022/09/19 08:43:07;;;;;;;2.85;1.40;;;16.00;69.00;;;;;;4987629;28;20088;-79
2022/09/19 08:46:10;;;;;;;2.88;1.48;;;16.10;68.90;;;;;;4999299;28;20046;-78
2022/09/19 08:48:45;;;;;;;2.90;1.33;;;16.20;67.90;;;;;;4999429;28;20379;-78
2022/09/19 08:51:17;;;;;;;2.72;1.38;;;16.30;67.70;;;;;;5013908;28;20081;-79
2022/09/19 08:53:48;;;;;;;2.42;1.35;;;16.50;67.70;;;;;;5011678;28;20108;-79
2022/09/19 08:56:16;;;;;;;2.75;1.77;;;16.60;67.20;;;;;;4999039;28;20072;-78
2022/09/19 08:58:49;;;;;;;3.22;1.48;;;16.80;66.50;;;;;;4998182;28;20022;-78
2022/09/19 09:01:16;;;;;;;5.25;1.70;;;17.40;65.90;;;;;;5012537;28;20030;-78
2022/09/19 09:04:07;;;;;;;3.72;1.45;;;18.10;63.00;;;;;;5011095;28;20038;-79
2022/09/19 09:07:09;;;;;;;3.08;1.35;;;18.80;59.50;;;;;;4998787;28;20109;-79
2022/09/19 09:10:04;;;;;;;2.42;1.45;;;19.50;59.20;;;;;;5014307;28;20073;-79
2022/09/19 09:12:42;;;;;;;2.45;2.22;;;20.30;55.20;;;;;;4980820;28;20070;-79
2022/09/19 09:15:43;;;;;;;1.85;1.20;;;20.40;53.70;;;;;;5013579;28;20688;-79
2022/09/19 09:18:42;;;;;;;1.20;0.88;;;20.40;54.30;;;;;;4995175;28;20049;-79
2022/09/19 09:21:13;;;;;;;2.00;1.20;;;20.00;56.10;;;;;;4998458;28;20022;-80
2022/09/19 09:23:42;;;;;;;3.88;1.50;;;19.40;56.60;;;;;;4998631;28;20030;-79
2022/09/19 09:26:25;;;;;;;2.28;1.17;;;19.00;58.40;;;;;;4998261;28;20025;-79
2022/09/19 09:28:55;;;;;;;3.33;1.60;;;18.80;59.40;;;;;;5017209;28;20030;-78
2022/09/19 09:31:36;;;;;;;3.22;1.38;;;18.50;59.40;;;;;;5032667;28;20030;-79
2022/09/19 09:34:14;;;;;;;4.93;1.50;;;18.30;59.60;;;;;;5018896;28;20031;-79
2022/09/19 09:36:50;;;;;;;2.92;1.35;;;18.30;60.60;;;;;;5017644;28;20034;-79
2022/09/19 09:39:49;;;;;;;2.50;1.70;;;18.20;61.10;;;;;;5017934;28;20620;-79
2022/09/19 09:42:21;;;;;;;4.40;1.50;;;18.20;60.00;;;;;;5012587;28;20500;-79
2022/09/19 09:44:51;;;;;;;3.15;1.40;;;18.20;60.80;;;;;;5017843;28;20057;-79
2022/09/19 09:47:21;;;;;;;1.65;1.00;;;18.20;60.60;;;;;;5009028;28;20023;-77
2022/09/19 09:49:49;;;;;;;1.90;1.23;;;18.20;61.30;;;;;;5013440;28;20030;-77
2022/09/19 09:52:32;;;;;;;1.45;1.00;;;18.20;60.40;;;;;;5011219;28;20041;-77
2022/09/19 09:59:02;;;;;;;2.40;1.35;;;18.30;59.80;;;;;;4987943;28;20064;-77
2022/09/19 10:04:50;;;;;;;3.35;1.33;;;18.30;59.10;;;;;;5015368;28;20176;-77
2022/09/19 10:07:25;;;;;;;2.25;1.38;;;18.60;59.50;;;;;;5015889;28;20028;-77
2022/09/19 10:10:00;;;;;;;2.75;1.10;;;18.80;58.60;;;;;;5007678;28;20038;-77
2022/09/19 10:12:39;;;;;;;1.65;1.20;;;19.00;58.50;;;;;;4999370;28;20033;-77
2022/09/19 10:15:13;;;;;;;2.90;1.20;;;18.90;56.90;;;;;;5014477;28;20038;-77
2022/09/19 10:17:45;;;;;;;4.50;1.30;;;18.90;57.50;;;;;;4997275;28;20049;-77
2022/09/19 10:20:19;;;;;;;1.70;1.10;;;18.80;54.40;;;;;;4997519;28;20030;-76
2022/09/19 10:22:44;;;;;;;2.35;0.98;;;18.80;55.60;;;;;;4997305;28;20662;-77
2022/09/19 10:25:15;;;;;;;3.60;1.52;;;18.80;56.30;;;;;;5019426;28;20118;-77
2022/09/19 10:27:43;;;;;;;2.33;1.02;;;18.80;56.00;;;;;;4997340;28;20482;-77
2022/09/19 10:30:24;;;;;;;3.55;1.48;;;18.80;54.90;;;;;;5012244;28;20490;-77
2022/09/19 10:32:51;;;;;;;2.97;1.10;;;18.80;55.30;;;;;;4997502;28;20041;-77
2022/09/19 10:35:31;;;;;;;1.63;1.13;;;18.90;55.40;;;;;;5008635;28;20028;-77
2022/09/19 10:38:18;;;;;;;1.55;1.02;;;18.90;55.10;;;;;;4997354;28;20037;-77
2022/09/19 10:40:56;;;;;;;1.30;0.80;;;19.00;56.40;;;;;;5012219;28;20121;-78
2022/09/19 10:43:46;;;;;;;2.65;0.90;;;19.10;54.40;;;;;;4997382;28;20054;-79
2022/09/19 10:46:43;;;;;;;2.85;1.20;;;19.10;53.10;;;;;;4996916;28;20037;-78
2022/09/19 10:49:45;;;;;;;1.95;0.98;;;19.20;53.00;;;;;;4989310;28;20041;-78
2022/09/19 10:52:18;;;;;;;3.63;1.00;;;19.30;54.00;;;;;;4998888;28;20042;-79
2022/09/19 10:54:45;;;;;;;2.22;0.82;;;19.30;54.30;;;;;;5014907;28;20393;-78
2022/09/19 10:57:40;;;;;;;1.95;0.70;;;19.30;54.20;;;;;;5016372;28;20057;-78
2022/09/19 11:00:26;;;;;;;2.58;1.13;;;19.50;52.60;;;;;;4998541;28;20042;-77
2022/09/19 11:03:03;;;;;;;3.25;0.98;;;19.60;53.40;;;;;;5002205;28;20034;-77
2022/09/19 11:05:32;;;;;;;1.40;0.80;;;19.70;52.50;;;;;;5003644;28;20026;-77
2022/09/19 11:07:59;;;;;;;1.30;0.70;;;19.70;52.80;;;;;;5002704;28;20113;-77
2022/09/19 11:10:38;;;;;;;2.35;1.10;;;19.70;53.20;;;;;;5002700;28;20037;-77
2022/09/19 11:13:10;;;;;;;1.80;0.70;;;19.80;52.50;;;;;;5015954;28;20030;-77
2022/09/19 11:15:55;;;;;;;2.53;1.00;;;19.80;52.90;;;;;;5011911;28;20026;-79
2022/09/19 11:18:35;;;;;;;2.13;1.20;;;19.90;53.00;;;;;;4996206;28;20538;-78
2022/09/19 11:21:16;;;;;;;2.60;0.80;;;20.00;52.60;;;;;;4996197;28;20018;-79
2022/09/19 11:24:37;;;;;;;3.70;0.95;;;20.10;52.10;;;;;;4996596;28;20073;-78
2022/09/19 11:27:24;;;;;;;0.90;0.45;;;20.10;50.90;;;;;;4934296;29;20045;-78
2022/09/19 11:30:05;;;;;;;4.40;0.98;;;20.10;49.70;;;;;;4992913;28;20053;-78
2022/09/19 11:33:10;;;;;;;2.67;0.68;;;19.90;49.50;;;;;;5010033;28;20034;-78
2022/09/19 11:35:44;;;;;;;2.22;0.85;;;19.80;50.00;;;;;;4997684;28;20030;-79
2022/09/19 11:38:36;;;;;;;4.18;1.40;;;19.60;50.80;;;;;;4996414;28;20026;-79
2022/09/19 11:41:09;;;;;;;2.30;0.80;;;19.70;49.30;;;;;;4996128;28;20042;-78
2022/09/19 11:43:51;;;;;;;1.70;0.93;;;19.80;48.90;;;;;;5011718;28;20043;-78
2022/09/19 11:46:30;;;;;;;2.85;1.00;;;19.90;48.00;;;;;;4995980;28;20161;-78
2022/09/19 11:49:37;;;;;;;4.57;0.85;;;20.00;47.60;;;;;;4996589;28;20144;-78
2022/09/19 11:52:08;;;;;;;1.70;0.80;;;20.10;48.00;;;;;;4982991;28;20053;-78
2022/09/19 11:54:46;;;;;;;1.55;0.75;;;20.10;47.10;;;;;;4995827;28;20030;-78
2022/09/19 11:57:17;;;;;;;1.33;0.70;;;20.10;47.40;;;;;;5004366;28;20029;-78
2022/09/19 12:00:04;;;;;;;1.15;0.68;;;20.10;45.90;;;;;;5012443;28;20041;-78
2022/09/19 12:03:02;;;;;;;2.17;1.00;;;20.20;46.80;;;;;;5016684;28;20163;-78
2022/09/19 12:05:56;;;;;;;1.25;0.80;;;20.30;46.50;;;;;;5015509;28;20489;-78
2022/09/19 12:08:39;;;;;;;1.17;0.60;;;20.40;45.00;;;;;;5002194;28;20026;-78
2022/09/19 12:11:37;;;;;;;1.00;0.52;;;20.50;44.90;;;;;;5003910;28;20033;-78
2022/09/19 12:14:15;;;;;;;2.22;0.93;;;20.50;46.40;;;;;;5007765;28;20037;-79
2022/09/19 12:16:46;;;;;;;2.55;1.20;;;20.50;46.10;;;;;;4995684;28;20471;-78
2022/09/19 12:19:23;;;;;;;1.15;0.50;;;20.60;45.40;;;;;;4994693;28;20456;-79
2022/09/19 12:21:53;;;;;;;1.05;0.50;;;20.60;45.10;;;;;;5014639;28;20022;-79
2022/09/19 12:27:18;;;;;;;1.65;1.05;;;20.50;45.50;;;;;;5005661;28;20045;-79
2022/09/19 12:30:02;;;;;;;1.35;0.70;;;20.70;45.30;;;;;;5001469;28;20037;-79
2022/09/19 12:33:01;;;;;;;2.92;0.57;;;20.80;43.70;;;;;;5013478;28;20386;-79
2022/09/19 12:35:41;;;;;;;1.30;0.70;;;20.80;44.40;;;;;;4995720;28;20587;-79
2022/09/19 12:38:46;;;;;;;1.50;0.55;;;20.70;45.60;;;;;;4999230;28;20113;-79
2022/09/19 12:41:24;;;;;;;1.63;0.60;;;20.60;45.30;;;;;;4980563;28;20037;-79
2022/09/19 12:44:16;;;;;;;2.13;0.50;;;20.40;45.30;;;;;;4999341;28;20069;-79
2022/09/19 12:47:10;;;;;;;3.63;0.90;;;20.40;46.10;;;;;;5011010;28;20030;-79
2022/09/19 12:49:59;;;;;;;2.03;0.88;;;20.70;46.10;;;;;;4999216;28;20038;-79
2022/09/19 12:52:28;;;;;;;1.05;0.50;;;20.90;44.80;;;;;;4997569;28;20065;-79
2022/09/19 12:55:04;;;;;;;1.88;0.70;;;21.10;43.30;;;;;;4999373;28;20046;-79
2022/09/19 12:58:08;;;;;;;2.72;0.65;;;21.30;44.40;;;;;;5014189;28;20041;-80
2022/09/19 13:00:39;;;;;;;1.20;0.63;;;21.40;44.40;;;;;;4999272;28;20540;-79
2022/09/19 13:03:16;;;;;;;0.88;0.40;;;21.40;42.90;;;;;;4998372;28;20057;-79
2022/09/19 13:05:46;;;;;;;1.00;0.50;;;21.50;41.90;;;;;;4999232;28;20037;-79
2022/09/19 13:08:17;;;;;;;0.77;0.40;;;21.50;42.30;;;;;;4998834;28;20121;-79
2022/09/19 13:10:46;;;;;;;;;;;21.40;40.50;;;;;;5008025;28;20018;-79
2022/09/19 13:13:34;;;;;;;0.80;0.45;;;21.40;42.30;;;;;;5000464;28;19921;-79
2022/09/19 13:16:04;;;;;;;1.63;0.90;;;21.60;43.40;;;;;;5017951;28;20038;-79
2022/09/19 13:24:18;;;;;;;0.80;0.50;;;21.30;43.00;;;;;;4998708;28;20461;-79
2022/09/19 13:26:56;;;;;;;0.90;0.60;;;21.20;43.00;;;;;;4998598;28;20030;-79
2022/09/19 13:29:27;;;;;;;1.05;0.40;;;21.20;42.80;;;;;;5002788;28;20034;-79
2022/09/19 13:31:56;;;;;;;0.90;0.40;;;21.30;42.00;;;;;;5017524;28;20065;-79
2022/09/19 13:34:39;;;;;;;1.20;0.63;;;21.40;43.20;;;;;;5017845;28;20113;-79
2022/09/19 13:37:27;;;;;;;1.75;0.60;;;21.60;42.30;;;;;;5024408;28;20058;-79
2022/09/19 13:40:06;;;;;;;1.45;0.65;;;21.70;42.60;;;;;;4998331;28;20048;-79
2022/09/19 13:42:40;;;;;;;1.52;0.50;;;21.80;41.50;;;;;;4998116;28;20022;-79
2022/09/19 13:45:27;;;;;;;1.30;0.43;;;21.90;42.10;;;;;;5009270;28;20060;-80
2022/09/19 13:48:01;;;;;;;1.10;0.60;;;22.00;39.80;;;;;;5017352;28;20046;-79